createdAt,value
2017-11-07T00:00:16.826Z,71.07
2017-11-07T00:01:23.954Z,71.07
2017-11-07T00:02:30.854Z,71.01
2017-11-07T00:03:37.633Z,70.97
2017-11-07T00:04:44.504Z,70.94
2017-11-07T00:05:51.357Z,70.90
2017-11-07T00:06:58.225Z,70.82
2017-11-07T00:08:05.225Z,70.71
2017-11-07T00:09:12.106Z,70.63
2017-11-07T00:10:19.245Z,70.64
2017-11-07T00:11:26.197Z,70.61
2017-11-07T00:12:33.176Z,70.54
2017-11-07T00:13:39.983Z,70.48
2017-11-07T00:14:46.925Z,70.43
2017-11-07T00:15:53.890Z,70.44
2017-11-07T00:17:00.837Z,70.38
2017-11-07T00:18:07.682Z,70.39
2017-11-07T00:19:14.689Z,70.38
2017-11-07T00:20:21.541Z,70.37
2017-11-07T00:21:28.258Z,70.32
2017-11-07T00:22:35.180Z,70.32
2017-11-07T00:23:42.291Z,70.26
2017-11-07T00:24:49.245Z,70.18
2017-11-07T00:25:56.065Z,70.17
2017-11-07T00:27:02.868Z,70.12
2017-11-07T00:28:09.682Z,70.11
2017-11-07T00:29:16.508Z,70.04
2017-11-07T00:30:23.253Z,69.97
2017-11-07T00:31:30.076Z,69.88
2017-11-07T00:32:37.014Z,69.84
2017-11-07T00:33:43.909Z,69.79
2017-11-07T00:34:50.689Z,69.76
2017-11-07T00:35:57.605Z,69.79
2017-11-07T00:37:04.445Z,69.75
2017-11-07T00:38:11.553Z,69.70
2017-11-07T00:39:18.441Z,69.69
2017-11-07T00:40:25.260Z,69.63
2017-11-07T00:41:31.957Z,69.65
2017-11-07T00:42:38.752Z,69.67
2017-11-07T00:43:45.605Z,69.62
2017-11-07T00:44:52.562Z,69.61
2017-11-07T00:45:59.425Z,69.54
2017-11-07T00:47:06.297Z,69.58
2017-11-07T00:48:13.096Z,69.51
2017-11-07T00:49:19.885Z,69.51
2017-11-07T00:50:26.653Z,69.45
2017-11-07T00:51:33.437Z,69.50
2017-11-07T00:52:40.302Z,69.44
2017-11-07T00:53:47.203Z,69.43
2017-11-07T00:54:53.970Z,69.41
2017-11-07T00:56:00.868Z,69.40
2017-11-07T00:57:07.717Z,69.36
2017-11-07T00:58:14.461Z,69.34
2017-11-07T00:59:21.357Z,69.30
2017-11-07T01:00:28.107Z,69.26
2017-11-07T01:01:34.978Z,69.24
2017-11-07T01:02:42.102Z,69.20
2017-11-07T01:03:48.972Z,69.19
2017-11-07T01:04:55.881Z,69.15
2017-11-07T01:06:02.828Z,69.08
2017-11-07T01:07:09.578Z,69.04
2017-11-07T01:08:16.296Z,69.03
2017-11-07T01:09:23.165Z,69.07
2017-11-07T01:10:29.997Z,69.07
2017-11-07T01:11:36.801Z,69.06
2017-11-07T01:12:43.460Z,69.07
2017-11-07T01:13:50.229Z,69.03
2017-11-07T01:14:57.092Z,69.08
2017-11-07T01:16:04.079Z,69.07
2017-11-07T01:17:10.793Z,69.08
2017-11-07T01:18:17.743Z,69.12
2017-11-07T01:19:24.501Z,69.08
2017-11-07T01:20:31.322Z,69.08
2017-11-07T01:21:38.250Z,69.08
2017-11-07T01:22:45.035Z,69.15
2017-11-07T01:23:52.058Z,69.15
2017-11-07T01:24:58.805Z,69.20
2017-11-07T01:26:05.589Z,69.24
2017-11-07T01:27:12.441Z,69.20
2017-11-07T01:28:19.282Z,69.20
2017-11-07T01:29:26.125Z,69.19
2017-11-07T01:30:33.402Z,69.20
2017-11-07T01:31:40.328Z,69.22
2017-11-07T01:32:47.154Z,69.19
2017-11-07T01:33:53.970Z,69.18
2017-11-07T01:35:00.862Z,69.19
2017-11-07T01:36:07.881Z,69.23
2017-11-07T01:37:15.030Z,69.21
2017-11-07T01:38:21.833Z,69.16
2017-11-07T01:39:28.821Z,69.18
2017-11-07T01:40:35.569Z,69.17
2017-11-07T01:41:42.357Z,69.22
2017-11-07T01:42:49.132Z,69.21
2017-11-07T01:43:56.076Z,69.22
2017-11-07T01:45:02.932Z,69.19
2017-11-07T01:46:09.797Z,69.17
2017-11-07T01:47:16.572Z,69.15
2017-11-07T01:48:23.337Z,69.13
2017-11-07T01:49:30.329Z,69.13
2017-11-07T01:50:37.265Z,69.09
2017-11-07T01:51:44.258Z,69.11
2017-11-07T01:52:51.101Z,69.13
2017-11-07T01:53:57.914Z,69.09
2017-11-07T01:55:04.800Z,69.08
2017-11-07T01:56:11.845Z,69.10
2017-11-07T01:57:18.721Z,69.09
2017-11-07T01:58:25.611Z,69.04
2017-11-07T01:59:32.553Z,69.06
2017-11-07T02:00:39.526Z,69.05
2017-11-07T02:01:46.482Z,69.02
2017-11-07T02:02:53.220Z,68.98
2017-11-07T02:04:00.138Z,68.96
2017-11-07T02:05:07.085Z,69.00
2017-11-07T02:06:14.038Z,69.01
2017-11-07T02:07:20.842Z,69.02
2017-11-07T02:08:27.842Z,69.02
2017-11-07T02:09:34.666Z,69.03
2017-11-07T02:10:41.657Z,68.97
2017-11-07T02:11:48.473Z,68.96
2017-11-07T02:12:55.316Z,68.96
2017-11-07T02:14:02.138Z,69.01
2017-11-07T02:15:09.034Z,69.01
2017-11-07T02:16:16.117Z,69.02
2017-11-07T02:17:23.172Z,69.03
2017-11-07T02:18:30.161Z,69.04
2017-11-07T02:19:36.933Z,69.02
2017-11-07T02:20:43.813Z,69.02
2017-11-07T02:21:50.665Z,68.99
2017-11-07T02:22:57.524Z,69.00
2017-11-07T02:24:04.633Z,69.03
2017-11-07T02:25:11.709Z,69.02
2017-11-07T02:26:18.697Z,69.01
2017-11-07T02:27:25.713Z,68.96
2017-11-07T02:28:32.862Z,68.97
2017-11-07T02:29:40.189Z,68.94
2017-11-07T02:30:46.709Z,68.96
2017-11-07T02:31:53.777Z,68.95
2017-11-07T02:33:00.517Z,68.92
2017-11-07T02:34:07.579Z,68.87
2017-11-07T02:35:14.607Z,68.88
2017-11-07T02:36:21.538Z,68.83
2017-11-07T02:37:28.392Z,68.88
2017-11-07T02:38:35.213Z,68.90
2017-11-07T02:39:42.040Z,68.91
2017-11-07T02:40:48.778Z,68.91
2017-11-07T02:41:55.641Z,68.96
2017-11-07T02:43:02.454Z,69.03
2017-11-07T02:44:09.458Z,69.04
2017-11-07T02:45:16.353Z,69.11
2017-11-07T02:46:23.345Z,69.06
2017-11-07T02:47:30.290Z,69.07
2017-11-07T02:48:37.182Z,69.04
2017-11-07T02:49:44.212Z,69.02
2017-11-07T02:50:51.161Z,69.03
2017-11-07T02:51:58.189Z,68.97
2017-11-07T02:53:05.081Z,68.99
2017-11-07T02:54:11.878Z,69.05
2017-11-07T02:55:18.675Z,69.06
2017-11-07T02:56:25.840Z,69.07
2017-11-07T02:57:32.813Z,69.04
2017-11-07T02:58:39.557Z,69.05
2017-11-07T02:59:46.553Z,69.14
2017-11-07T03:00:53.478Z,69.10
2017-11-07T03:02:00.562Z,69.12
2017-11-07T03:03:07.454Z,69.07
2017-11-07T03:04:14.263Z,69.07
2017-11-07T03:05:21.177Z,69.03
2017-11-07T03:06:27.953Z,69.07
2017-11-07T03:07:34.701Z,69.08
2017-11-07T03:08:41.506Z,69.12
2017-11-07T03:09:48.183Z,69.14
2017-11-07T03:10:54.970Z,69.10
2017-11-07T03:12:01.941Z,69.12
2017-11-07T03:13:08.685Z,69.11
2017-11-07T03:14:15.411Z,69.12
2017-11-07T03:15:22.181Z,69.18
2017-11-07T03:16:28.953Z,69.20
2017-11-07T03:17:35.756Z,69.25
2017-11-07T03:18:42.477Z,69.30
2017-11-07T03:19:49.232Z,69.27
2017-11-07T03:20:56.225Z,69.26
2017-11-07T03:22:03.055Z,69.22
2017-11-07T03:23:10.081Z,69.24
2017-11-07T03:24:16.921Z,69.26
2017-11-07T03:25:23.630Z,69.31
2017-11-07T03:26:30.472Z,69.32
2017-11-07T03:27:37.394Z,69.37
2017-11-07T03:28:44.085Z,69.39
2017-11-07T03:29:50.961Z,69.33
2017-11-07T03:30:57.679Z,69.38
2017-11-07T03:32:04.618Z,69.40
2017-11-07T03:33:11.333Z,69.38
2017-11-07T03:34:18.249Z,69.41
2017-11-07T03:35:25.186Z,69.43
2017-11-07T03:36:32.038Z,69.38
2017-11-07T03:37:39.074Z,69.39
2017-11-07T03:38:45.829Z,69.44
2017-11-07T03:39:52.615Z,69.44
2017-11-07T03:40:59.430Z,69.36
2017-11-07T03:42:06.246Z,69.35
2017-11-07T03:43:13.204Z,69.35
2017-11-07T03:44:20.005Z,69.34
2017-11-07T03:45:26.771Z,69.35
2017-11-07T03:46:33.599Z,69.40
2017-11-07T03:47:40.744Z,69.39
2017-11-07T03:48:47.614Z,69.40
2017-11-07T03:49:54.525Z,69.42
2017-11-07T03:51:01.517Z,69.45
2017-11-07T03:52:11.323Z,69.39
2017-11-07T03:53:15.233Z,69.37
2017-11-07T03:54:22.011Z,69.42
2017-11-07T03:55:28.837Z,69.47
2017-11-07T03:56:35.661Z,69.46
2017-11-07T03:57:42.561Z,69.51
2017-11-07T03:58:49.338Z,69.53
2017-11-07T03:59:56.103Z,69.54
2017-11-07T04:01:02.853Z,69.54
2017-11-07T04:02:09.649Z,69.52
2017-11-07T04:03:16.614Z,69.51
2017-11-07T04:04:23.492Z,69.53
2017-11-07T04:05:30.337Z,69.54
2017-11-07T04:06:37.181Z,69.51
2017-11-07T04:07:44.029Z,69.51
2017-11-07T04:08:50.883Z,69.58
2017-11-07T04:09:57.625Z,69.61
2017-11-07T04:11:04.365Z,69.62
2017-11-07T04:12:11.137Z,69.65
2017-11-07T04:13:17.945Z,69.64
2017-11-07T04:14:24.972Z,69.61
2017-11-07T04:15:31.874Z,69.66
2017-11-07T04:16:38.668Z,69.68
2017-11-07T04:17:45.425Z,69.73
2017-11-07T04:18:52.248Z,69.75
2017-11-07T04:19:59.035Z,69.70
2017-11-07T04:21:05.965Z,69.69
2017-11-07T04:22:12.855Z,69.73
2017-11-07T04:23:19.653Z,69.77
2017-11-07T04:24:26.813Z,69.73
2017-11-07T04:25:33.825Z,69.74
2017-11-07T04:26:40.656Z,69.72
2017-11-07T04:27:47.490Z,69.73
2017-11-07T04:28:54.344Z,69.74
2017-11-07T04:30:01.253Z,69.74
2017-11-07T04:31:08.178Z,69.67
2017-11-07T04:32:14.898Z,69.73
2017-11-07T04:33:21.685Z,69.68
2017-11-07T04:34:28.391Z,69.67
2017-11-07T04:35:35.288Z,69.68
2017-11-07T04:36:42.197Z,69.68
2017-11-07T04:37:49.021Z,69.69
2017-11-07T04:38:55.994Z,69.73
2017-11-07T04:40:02.862Z,69.79
2017-11-07T04:41:09.795Z,69.85
2017-11-07T04:42:16.694Z,69.88
2017-11-07T04:43:23.561Z,69.85
2017-11-07T04:44:30.452Z,69.89
2017-11-07T04:45:37.607Z,69.88
2017-11-07T04:46:43.866Z,69.85
2017-11-07T04:47:50.684Z,69.89
2017-11-07T04:48:57.469Z,69.91
2017-11-07T04:50:04.386Z,69.88
2017-11-07T04:51:11.081Z,69.89
2017-11-07T04:52:18.073Z,69.90
2017-11-07T04:53:25.092Z,69.95
2017-11-07T04:54:31.821Z,69.98
2017-11-07T04:55:38.873Z,69.92
2017-11-07T04:56:45.590Z,69.92
2017-11-07T04:57:52.368Z,69.97
2017-11-07T04:58:59.189Z,69.96
2017-11-07T05:00:05.899Z,70.01
2017-11-07T05:01:12.749Z,69.97
2017-11-07T05:02:19.498Z,70.00
2017-11-07T05:03:26.268Z,69.98
2017-11-07T05:04:32.967Z,69.99
2017-11-07T05:05:39.913Z,70.03
2017-11-07T05:06:46.705Z,70.02
2017-11-07T05:07:53.525Z,70.06
2017-11-07T05:09:00.277Z,70.05
2017-11-07T05:10:07.280Z,70.04
2017-11-07T05:11:14.065Z,70.06
2017-11-07T05:12:20.914Z,70.04
2017-11-07T05:13:27.777Z,70.03
2017-11-07T05:14:34.612Z,69.99
2017-11-07T05:15:41.702Z,69.99
2017-11-07T05:16:48.513Z,70.07
2017-11-07T05:17:55.230Z,70.08
2017-11-07T05:19:02.015Z,70.17
2017-11-07T05:20:09.001Z,70.21
2017-11-07T05:21:15.898Z,70.15
2017-11-07T05:22:22.787Z,70.12
2017-11-07T05:23:29.510Z,70.20
2017-11-07T05:24:36.271Z,70.27
2017-11-07T05:25:43.094Z,70.30
2017-11-07T05:26:49.960Z,70.28
2017-11-07T05:27:56.845Z,70.33
2017-11-07T05:29:03.695Z,70.34
2017-11-07T05:30:10.633Z,70.34
2017-11-07T05:31:17.397Z,70.31
2017-11-07T05:32:24.252Z,70.36
2017-11-07T05:33:31.233Z,70.37
2017-11-07T05:34:38.017Z,70.41
2017-11-07T05:35:44.691Z,70.43
2017-11-07T05:36:51.581Z,70.40
2017-11-07T05:37:58.427Z,70.39
2017-11-07T05:39:05.281Z,70.42
2017-11-07T05:40:12.087Z,70.49
2017-11-07T05:41:18.871Z,70.48
2017-11-07T05:42:25.685Z,70.52
2017-11-07T05:43:32.463Z,70.55
2017-11-07T05:44:39.205Z,70.61
2017-11-07T05:45:45.968Z,70.64
2017-11-07T05:46:52.977Z,70.70
2017-11-07T05:48:00.079Z,70.67
2017-11-07T05:49:07.020Z,70.70
2017-11-07T05:50:13.786Z,70.74
2017-11-07T05:51:20.829Z,70.68
2017-11-07T05:52:27.722Z,70.69
2017-11-07T05:53:34.521Z,70.70
2017-11-07T05:54:41.220Z,70.70
2017-11-07T05:55:48.369Z,70.76
2017-11-07T05:56:55.191Z,70.78
2017-11-07T05:58:02.091Z,70.77
2017-11-07T05:59:08.803Z,70.76
2017-11-07T06:00:15.722Z,70.80
2017-11-07T06:01:22.628Z,70.80
2017-11-07T06:02:29.610Z,70.81
2017-11-07T06:03:36.417Z,70.83
2017-11-07T06:04:43.179Z,70.79
2017-11-07T06:05:49.985Z,70.80
2017-11-07T06:06:56.816Z,70.86
2017-11-07T06:08:03.657Z,70.86
2017-11-07T06:09:10.372Z,70.88
2017-11-07T06:10:17.146Z,70.89
2017-11-07T06:11:24.271Z,70.94
2017-11-07T06:12:31.052Z,70.98
2017-11-07T06:13:37.780Z,70.97
2017-11-07T06:14:44.630Z,70.95
2017-11-07T06:15:51.456Z,70.97
2017-11-07T06:16:58.269Z,71.00
2017-11-07T06:18:05.041Z,71.03
2017-11-07T06:19:12.022Z,71.11
2017-11-07T06:20:18.729Z,71.11
2017-11-07T06:21:25.578Z,71.08
2017-11-07T06:22:32.372Z,71.13
2017-11-07T06:23:39.206Z,71.14
2017-11-07T06:24:46.042Z,71.14
2017-11-07T06:25:52.911Z,71.14
2017-11-07T06:26:59.813Z,71.15
2017-11-07T06:28:06.698Z,71.15
2017-11-07T06:29:13.478Z,71.18
2017-11-07T06:30:20.209Z,71.09
2017-11-07T06:31:26.900Z,71.05
2017-11-07T06:32:33.733Z,71.12
2017-11-07T06:33:40.531Z,71.14
2017-11-07T06:34:47.348Z,71.18
2017-11-07T06:35:54.214Z,71.17
2017-11-07T06:37:01.009Z,71.13
2017-11-07T06:38:07.845Z,71.16
2017-11-07T06:39:14.572Z,71.19
2017-11-07T06:40:21.269Z,71.26
2017-11-07T06:41:28.332Z,71.23
2017-11-07T06:42:35.150Z,71.24
2017-11-07T06:43:41.908Z,71.26
2017-11-07T06:44:48.741Z,71.28
2017-11-07T06:45:55.507Z,71.33
2017-11-07T06:47:02.378Z,71.38
2017-11-07T06:48:09.222Z,71.37
2017-11-07T06:49:16.158Z,71.39
2017-11-07T06:50:23.193Z,71.39
2017-11-07T06:51:29.942Z,71.44
2017-11-07T06:52:36.897Z,71.39
2017-11-07T06:53:43.745Z,71.38
2017-11-07T06:54:50.509Z,71.39
2017-11-07T06:55:57.309Z,71.42
2017-11-07T06:57:04.281Z,71.39
2017-11-07T06:58:11.054Z,71.41
2017-11-07T06:59:17.924Z,71.41
2017-11-07T07:00:24.914Z,71.42
2017-11-07T07:01:31.621Z,71.46
2017-11-07T07:02:38.439Z,71.49
2017-11-07T07:03:45.405Z,71.54
2017-11-07T07:04:52.418Z,71.57
2017-11-07T07:05:59.228Z,71.61
2017-11-07T07:07:06.051Z,71.64
2017-11-07T07:08:12.888Z,71.63
2017-11-07T07:09:19.900Z,71.62
2017-11-07T07:10:26.674Z,71.64
2017-11-07T07:11:33.581Z,71.67
2017-11-07T07:12:40.525Z,71.71
2017-11-07T07:13:47.433Z,71.77
2017-11-07T07:14:54.205Z,71.77
2017-11-07T07:16:01.199Z,71.83
2017-11-07T07:17:08.094Z,71.82
2017-11-07T07:18:15.063Z,71.85
2017-11-07T07:19:21.933Z,71.83
2017-11-07T07:20:28.749Z,71.86
2017-11-07T07:21:35.505Z,71.95
2017-11-07T07:22:42.454Z,72.02
2017-11-07T07:23:49.369Z,72.12
2017-11-07T07:24:56.349Z,72.17
2017-11-07T07:26:03.258Z,72.15
2017-11-07T07:27:10.088Z,72.14
2017-11-07T07:28:16.880Z,72.19
2017-11-07T07:29:23.670Z,72.25
2017-11-07T07:30:30.504Z,72.30
2017-11-07T07:31:37.302Z,72.32
2017-11-07T07:32:44.077Z,72.40
2017-11-07T07:33:50.885Z,72.47
2017-11-07T07:34:57.704Z,72.54
2017-11-07T07:36:04.619Z,72.58
2017-11-07T07:37:11.549Z,72.64
2017-11-07T07:38:18.388Z,72.71
2017-11-07T07:39:25.121Z,72.71
2017-11-07T07:40:32.062Z,72.78
2017-11-07T07:41:38.957Z,72.86
2017-11-07T07:42:45.773Z,72.96
2017-11-07T07:43:52.638Z,73.01
2017-11-07T07:44:59.771Z,73.08
2017-11-07T07:46:06.549Z,73.18
2017-11-07T07:47:13.379Z,73.24
2017-11-07T07:48:20.421Z,73.26
2017-11-07T07:49:27.219Z,73.35
2017-11-07T07:50:34.238Z,73.47
2017-11-07T07:51:40.956Z,73.52
2017-11-07T07:52:47.756Z,73.62
2017-11-07T07:53:54.818Z,73.73
2017-11-07T07:55:01.848Z,73.83
2017-11-07T07:56:08.659Z,73.89
2017-11-07T07:57:15.476Z,73.90
2017-11-07T07:58:22.186Z,73.94
2017-11-07T07:59:29.151Z,74.01
2017-11-07T08:00:36.010Z,74.06
2017-11-07T08:01:42.857Z,74.13
2017-11-07T08:02:49.746Z,74.19
2017-11-07T08:03:56.770Z,74.30
2017-11-07T08:05:03.693Z,74.34
2017-11-07T08:06:10.681Z,74.41
2017-11-07T08:07:17.980Z,74.47
2017-11-07T08:08:25.017Z,74.53
2017-11-07T08:09:31.981Z,74.62
2017-11-07T08:10:38.781Z,74.65
2017-11-07T08:11:45.672Z,74.73
2017-11-07T08:12:52.514Z,74.84
2017-11-07T08:13:59.424Z,74.92
2017-11-07T08:15:06.449Z,75.04
2017-11-07T08:16:13.354Z,75.12
2017-11-07T08:17:20.371Z,75.21
2017-11-07T08:18:27.381Z,75.29
2017-11-07T08:19:34.299Z,75.33
2017-11-07T08:20:41.309Z,75.43
2017-11-07T08:21:48.409Z,75.50
2017-11-07T08:22:55.341Z,75.62
2017-11-07T08:24:02.206Z,75.73
2017-11-07T08:25:09.113Z,75.82
2017-11-07T08:26:16.146Z,75.88
2017-11-07T08:27:23.009Z,75.97
2017-11-07T08:28:29.781Z,76.05
2017-11-07T08:29:36.572Z,76.15
2017-11-07T08:30:43.553Z,76.24
2017-11-07T08:31:50.373Z,76.33
2017-11-07T08:32:57.240Z,76.39
2017-11-07T08:34:04.037Z,76.51
2017-11-07T08:35:10.861Z,76.59
2017-11-07T08:36:17.723Z,76.68
2017-11-07T08:37:24.593Z,76.75
2017-11-07T08:38:31.401Z,76.82
2017-11-07T08:39:38.256Z,76.91
2017-11-07T08:40:45.209Z,76.95
2017-11-07T08:41:51.992Z,77.00
2017-11-07T08:42:58.832Z,77.05
2017-11-07T08:44:05.582Z,77.14
2017-11-07T08:45:12.322Z,77.18
2017-11-07T08:46:19.206Z,77.20
2017-11-07T08:47:26.047Z,77.23
2017-11-07T08:48:32.937Z,77.31
2017-11-07T08:49:39.842Z,77.35
2017-11-07T08:50:46.636Z,77.43
2017-11-07T08:51:53.449Z,77.50
2017-11-07T08:53:00.225Z,77.51
2017-11-07T08:54:07.090Z,77.62
2017-11-07T08:55:13.854Z,77.65
2017-11-07T08:56:20.763Z,77.75
2017-11-07T08:57:27.725Z,77.78
2017-11-07T08:58:34.677Z,77.85
2017-11-07T08:59:41.463Z,77.89
2017-11-07T09:00:48.350Z,77.96
2017-11-07T09:01:55.270Z,78.00
2017-11-07T09:03:02.294Z,78.04
2017-11-07T09:04:09.196Z,78.12
2017-11-07T09:05:16.068Z,78.22
2017-11-07T09:06:22.835Z,78.23
2017-11-07T09:07:29.776Z,78.30
2017-11-07T09:08:36.565Z,78.37
2017-11-07T09:09:43.501Z,78.43
2017-11-07T09:10:50.398Z,78.47
2017-11-07T09:11:57.141Z,78.52
2017-11-07T09:13:03.950Z,78.58
2017-11-07T09:14:10.884Z,78.60
2017-11-07T09:15:17.817Z,78.68
2017-11-07T09:16:24.766Z,78.77
2017-11-07T09:17:31.829Z,78.90
2017-11-07T09:18:38.722Z,78.99
2017-11-07T09:19:45.590Z,79.10
2017-11-07T09:20:52.433Z,79.19
2017-11-07T09:21:59.359Z,79.28
2017-11-07T09:23:06.158Z,79.37
2017-11-07T09:24:13.017Z,79.47
2017-11-07T09:25:19.907Z,79.59
2017-11-07T09:26:26.918Z,79.68
2017-11-07T09:27:33.766Z,79.77
2017-11-07T09:28:40.513Z,79.84
2017-11-07T09:29:47.394Z,79.94
2017-11-07T09:30:54.200Z,80.05
2017-11-07T09:32:01.150Z,80.14
2017-11-07T09:33:08.093Z,80.26
2017-11-07T09:34:14.892Z,80.32
2017-11-07T09:35:21.614Z,80.40
2017-11-07T09:36:28.414Z,80.46
2017-11-07T09:37:35.176Z,80.58
2017-11-07T09:38:42.324Z,80.63
2017-11-07T09:39:49.279Z,80.70
2017-11-07T09:40:56.077Z,80.81
2017-11-07T09:42:02.837Z,80.91
2017-11-07T09:43:09.665Z,80.94
2017-11-07T09:44:16.814Z,81.02
2017-11-07T09:45:23.695Z,81.10
2017-11-07T09:46:30.614Z,81.16
2017-11-07T09:47:37.433Z,81.24
2017-11-07T09:48:44.465Z,81.34
2017-11-07T09:49:51.489Z,81.42
2017-11-07T09:50:58.437Z,81.53
2017-11-07T09:52:05.320Z,81.60
2017-11-07T09:53:12.179Z,81.68
2017-11-07T09:54:19.090Z,81.78
2017-11-07T09:55:25.913Z,81.84
2017-11-07T09:56:32.682Z,81.94
2017-11-07T09:57:39.565Z,82.02
2017-11-07T09:58:46.329Z,82.13
2017-11-07T09:59:53.211Z,82.21
2017-11-07T10:01:00.026Z,82.32
2017-11-07T10:02:06.913Z,82.40
2017-11-07T10:03:13.833Z,82.46
2017-11-07T10:04:20.892Z,82.55
2017-11-07T10:05:27.694Z,82.59
2017-11-07T10:06:34.425Z,82.66
2017-11-07T10:07:41.241Z,82.80
2017-11-07T10:08:48.058Z,82.88
2017-11-07T10:09:54.845Z,82.98
2017-11-07T10:11:01.766Z,83.05
2017-11-07T10:12:08.641Z,83.10
2017-11-07T10:13:15.450Z,83.20
2017-11-07T10:14:22.193Z,83.25
2017-11-07T10:15:29.037Z,83.35
2017-11-07T10:16:36.342Z,83.40
2017-11-07T10:17:42.970Z,83.49
2017-11-07T10:18:49.811Z,83.53
2017-11-07T10:19:56.647Z,83.63
2017-11-07T10:21:03.505Z,83.67
2017-11-07T10:22:10.382Z,83.73
2017-11-07T10:23:17.322Z,83.84
2017-11-07T10:24:24.178Z,83.92
2017-11-07T10:25:31.257Z,83.98
2017-11-07T10:26:38.205Z,84.01
2017-11-07T10:27:45.109Z,84.08
2017-11-07T10:28:52.129Z,84.18
2017-11-07T10:29:59.243Z,84.24
2017-11-07T10:31:06.317Z,84.31
2017-11-07T10:32:13.477Z,84.35
2017-11-07T10:33:19.765Z,84.44
2017-11-07T10:34:26.715Z,84.53
2017-11-07T10:35:33.546Z,84.57
2017-11-07T10:36:40.609Z,84.67
2017-11-07T10:37:47.501Z,84.75
2017-11-07T10:38:54.478Z,84.76
2017-11-07T10:40:01.519Z,84.85
2017-11-07T10:41:08.513Z,84.91
2017-11-07T10:42:15.529Z,85.01
2017-11-07T10:43:22.482Z,85.06
2017-11-07T10:44:29.640Z,85.11
2017-11-07T10:45:36.661Z,85.14
2017-11-07T10:46:43.727Z,85.22
2017-11-07T10:47:50.665Z,85.27
2017-11-07T10:48:57.684Z,85.32
2017-11-07T10:50:04.737Z,85.39
2017-11-07T10:51:11.611Z,85.43
2017-11-07T10:52:18.718Z,85.49
2017-11-07T10:53:25.838Z,85.55
2017-11-07T10:54:32.882Z,85.61
2017-11-07T10:55:39.894Z,85.67
2017-11-07T10:56:46.865Z,85.72
2017-11-07T10:57:53.993Z,85.80
2017-11-07T10:59:01.258Z,85.88
2017-11-07T11:00:07.922Z,85.96
2017-11-07T11:01:14.807Z,85.97
2017-11-07T11:02:21.858Z,86.00
2017-11-07T11:03:28.839Z,86.08
2017-11-07T11:04:35.815Z,86.17
2017-11-07T11:05:42.979Z,86.22
2017-11-07T11:06:49.929Z,86.25
2017-11-07T11:07:56.774Z,86.34
2017-11-07T11:09:03.637Z,86.39
2017-11-07T11:10:10.415Z,86.45
2017-11-07T11:11:17.358Z,86.47
2017-11-07T11:12:24.205Z,86.53
2017-11-07T11:13:31.109Z,86.59
2017-11-07T11:14:37.857Z,86.64
2017-11-07T11:15:44.629Z,86.67
2017-11-07T11:16:51.797Z,86.70
2017-11-07T11:17:58.807Z,86.76
2017-11-07T11:19:05.760Z,86.81
2017-11-07T11:20:13.009Z,86.85
2017-11-07T11:21:19.361Z,86.89
2017-11-07T11:22:26.065Z,86.95
2017-11-07T11:23:33.029Z,87.00
2017-11-07T11:24:39.873Z,87.05
2017-11-07T11:25:04.194Z,87.08
2017-11-07T11:26:10.988Z,87.09
2017-11-07T11:27:18.068Z,87.13
2017-11-07T11:28:24.937Z,87.18
2017-11-07T11:29:31.646Z,87.23
2017-11-07T11:30:38.453Z,87.25
2017-11-07T11:31:45.269Z,87.29
2017-11-07T11:32:52.184Z,87.32
2017-11-07T11:33:59.242Z,87.33
2017-11-07T11:35:06.184Z,87.38
2017-11-07T11:36:12.937Z,87.40
2017-11-07T11:37:19.718Z,87.42
2017-11-07T11:38:26.509Z,87.47
2017-11-07T11:39:33.577Z,87.54
2017-11-07T11:40:40.474Z,87.57
2017-11-07T11:41:47.286Z,87.58
2017-11-07T11:42:54.034Z,87.59
2017-11-07T11:44:01.058Z,87.68
2017-11-07T11:45:08.285Z,87.71
2017-11-07T11:46:14.845Z,87.75
2017-11-07T11:47:21.633Z,87.81
2017-11-07T11:48:28.641Z,87.86
2017-11-07T11:49:35.521Z,87.91
2017-11-07T11:50:42.331Z,87.98
2017-11-07T11:51:49.629Z,88.07
2017-11-07T11:52:56.330Z,88.11
2017-11-07T11:54:03.174Z,88.16
2017-11-07T11:55:10.113Z,88.25
2017-11-07T11:56:17.001Z,88.26
2017-11-07T11:57:23.910Z,88.30
2017-11-07T11:58:30.870Z,88.30
2017-11-07T11:59:37.949Z,88.37
2017-11-07T12:00:44.937Z,88.39
2017-11-07T12:01:51.965Z,88.39
2017-11-07T12:02:58.953Z,88.42
2017-11-07T12:04:05.905Z,88.47
2017-11-07T12:05:12.770Z,88.52
2017-11-07T12:06:19.645Z,88.53
2017-11-07T12:07:27.054Z,88.51
2017-11-07T12:08:33.549Z,88.54
2017-11-07T12:09:40.689Z,88.56
2017-11-07T12:10:47.587Z,88.60
2017-11-07T12:11:54.493Z,88.62
2017-11-07T12:13:01.429Z,88.68
2017-11-07T12:14:08.274Z,88.71
2017-11-07T12:15:15.102Z,88.74
2017-11-07T12:16:21.897Z,88.77
2017-11-07T12:17:28.821Z,88.79
2017-11-07T12:18:35.708Z,88.83
2017-11-07T12:19:42.696Z,88.87
2017-11-07T12:20:49.582Z,88.90
2017-11-07T12:21:56.507Z,88.87
2017-11-07T12:23:03.344Z,88.91
2017-11-07T12:24:10.092Z,88.95
2017-11-07T12:25:16.960Z,88.96
2017-11-07T12:26:23.884Z,88.97
2017-11-07T12:27:30.898Z,88.99
2017-11-07T12:28:37.724Z,89.01
2017-11-07T12:29:44.617Z,89.02
2017-11-07T12:30:51.626Z,89.04
2017-11-07T12:31:58.386Z,89.03
2017-11-07T12:33:05.370Z,89.01
2017-11-07T12:34:12.452Z,88.99
2017-11-07T12:35:19.271Z,88.93
2017-11-07T12:36:26.238Z,88.90
2017-11-07T12:37:33.149Z,88.83
2017-11-07T12:38:39.993Z,88.85
2017-11-07T12:39:46.951Z,88.80
2017-11-07T12:40:53.891Z,88.79
2017-11-07T12:42:00.646Z,88.77
2017-11-07T12:43:07.657Z,88.76
2017-11-07T12:44:14.573Z,88.74
2017-11-07T12:45:21.410Z,88.73
2017-11-07T12:46:28.245Z,88.74
2017-11-07T12:47:35.129Z,88.76
2017-11-07T12:48:42.041Z,88.70
2017-11-07T12:49:48.822Z,88.64
2017-11-07T12:50:55.849Z,88.69
2017-11-07T12:52:02.598Z,88.68
2017-11-07T12:53:09.645Z,88.63
2017-11-07T12:54:16.343Z,88.57
2017-11-07T12:55:23.406Z,88.51
2017-11-07T12:56:30.189Z,88.51
2017-11-07T12:57:37.229Z,88.44
2017-11-07T12:58:44.158Z,88.37
2017-11-07T12:59:51.040Z,88.32
2017-11-07T13:00:57.943Z,88.28
2017-11-07T13:02:04.841Z,88.15
2017-11-07T13:03:11.689Z,88.09
2017-11-07T13:04:18.505Z,88.06
2017-11-07T13:05:25.235Z,87.97
2017-11-07T13:06:32.003Z,87.94
2017-11-07T13:07:38.841Z,87.83
2017-11-07T13:08:45.807Z,87.85
2017-11-07T13:09:52.751Z,87.83
2017-11-07T13:10:59.647Z,87.71
2017-11-07T13:12:06.517Z,87.61
2017-11-07T13:13:13.649Z,87.58
2017-11-07T13:14:20.352Z,87.52
2017-11-07T13:15:27.124Z,87.50
2017-11-07T13:16:33.861Z,87.49
2017-11-07T13:17:40.861Z,87.46
2017-11-07T13:18:47.625Z,87.45
2017-11-07T13:19:54.449Z,87.37
2017-11-07T13:21:01.170Z,87.19
2017-11-07T13:22:08.093Z,87.12
2017-11-07T13:23:15.097Z,87.00
2017-11-07T13:24:22.017Z,86.92
2017-11-07T13:25:28.899Z,86.96
2017-11-07T13:26:35.633Z,86.87
2017-11-07T13:27:42.530Z,86.80
2017-11-07T13:28:49.357Z,86.76
2017-11-07T13:29:56.288Z,86.75
2017-11-07T13:31:03.121Z,86.63
2017-11-07T13:32:10.275Z,86.60
2017-11-07T13:33:17.037Z,86.56
2017-11-07T13:34:23.802Z,86.56
2017-11-07T13:35:30.673Z,86.39
2017-11-07T13:36:37.502Z,86.37
2017-11-07T13:37:44.441Z,86.22
2017-11-07T13:38:51.345Z,86.12
2017-11-07T13:39:58.226Z,86.04
2017-11-07T13:41:05.061Z,86.02
2017-11-07T13:42:11.917Z,85.93
2017-11-07T13:43:18.774Z,85.92
2017-11-07T13:44:25.795Z,85.92
2017-11-07T13:45:32.720Z,85.76
2017-11-07T13:46:39.502Z,85.67
2017-11-07T13:47:46.177Z,85.63
2017-11-07T13:48:52.993Z,85.57
2017-11-07T13:49:59.927Z,85.51
2017-11-07T13:51:06.782Z,85.39
2017-11-07T13:52:13.553Z,85.34
2017-11-07T13:53:20.488Z,85.30
2017-11-07T13:54:27.493Z,85.20
2017-11-07T13:55:34.249Z,85.12
2017-11-07T13:56:41.029Z,85.08
2017-11-07T13:57:47.778Z,85.01
2017-11-07T13:58:54.453Z,84.95
2017-11-07T14:00:01.340Z,84.97
2017-11-07T14:01:08.377Z,84.89
2017-11-07T14:02:15.178Z,84.79
2017-11-07T14:03:22.007Z,84.66
2017-11-07T14:04:29.053Z,84.62
2017-11-07T14:05:35.945Z,84.54
2017-11-07T14:06:42.797Z,84.49
2017-11-07T14:07:49.629Z,84.41
2017-11-07T14:08:56.368Z,84.38
2017-11-07T14:10:03.194Z,84.38
2017-11-07T14:11:10.033Z,84.36
2017-11-07T14:12:16.905Z,84.26
2017-11-07T14:13:23.597Z,84.19
2017-11-07T14:14:30.854Z,84.14
2017-11-07T14:15:37.671Z,84.10
2017-11-07T14:16:44.521Z,84.07
2017-11-07T14:17:51.377Z,84.00
2017-11-07T14:18:58.445Z,84.00
2017-11-07T14:20:05.385Z,83.94